createdAt,value
2017-09-04T00:00:04.831Z,6.90
2017-09-04T00:02:34.148Z,6.10
2017-09-04T00:05:03.033Z,6.90
2017-09-04T00:07:31.921Z,6.63
2017-09-04T00:10:00.809Z,6.17
2017-09-04T00:12:30.518Z,8.90
2017-09-04T00:14:59.612Z,7.73
2017-09-04T00:17:28.504Z,6.33
2017-09-04T00:19:57.372Z,6.77
2017-09-04T00:22:26.293Z,6.90
2017-09-04T00:24:55.266Z,7.97
2017-09-04T00:27:24.275Z,12.87
2017-09-04T00:29:53.157Z,6.60
2017-09-04T00:32:22.063Z,6.40
2017-09-04T00:34:50.948Z,6.90
2017-09-04T00:37:19.840Z,7.10
2017-09-04T00:39:48.728Z,8.03
2017-09-04T00:42:17.695Z,8.10
2017-09-04T00:44:46.508Z,8.20
2017-09-04T00:47:15.604Z,8.33
2017-09-04T00:49:44.532Z,7.90
2017-09-04T00:52:14.413Z,8.37
2017-09-04T00:54:43.614Z,9.23
2017-09-04T00:57:12.602Z,9.40
2017-09-04T00:59:41.510Z,12.20
2017-09-04T01:02:10.384Z,15.97
2017-09-04T01:04:39.379Z,17.40
2017-09-04T01:07:08.678Z,18.90
2017-09-04T01:09:37.571Z,17.93
2017-09-04T01:12:06.466Z,17.57
2017-09-04T01:14:35.556Z,15.00
2017-09-04T01:17:04.348Z,14.10
2017-09-04T01:19:33.444Z,14.37
2017-09-04T01:22:02.332Z,14.00
2017-09-04T01:24:31.224Z,14.40
2017-09-04T01:27:00.523Z,13.50
2017-09-04T01:29:29.422Z,13.77
2017-09-04T01:31:58.371Z,14.53
2017-09-04T01:34:27.197Z,13.13
2017-09-04T01:36:56.907Z,12.70
2017-09-04T01:39:26.824Z,12.60
2017-09-04T01:41:55.824Z,12.63
2017-09-04T01:44:24.604Z,13.33
2017-09-04T01:46:53.868Z,13.10
2017-09-04T01:49:22.657Z,13.47
2017-09-04T01:51:51.543Z,11.77
2017-09-04T01:54:20.478Z,12.70
2017-09-04T01:56:49.367Z,13.77
2017-09-04T01:59:18.258Z,12.70
2017-09-04T02:01:47.150Z,12.47
2017-09-04T02:04:16.042Z,12.10
2017-09-04T02:06:44.930Z,13.03
2017-09-04T02:09:13.822Z,10.40
2017-09-04T02:11:42.616Z,12.00
2017-09-04T02:14:11.505Z,10.67
2017-09-04T02:16:40.394Z,11.07
2017-09-04T02:19:09.288Z,11.33
2017-09-04T02:21:38.998Z,11.67
2017-09-04T02:24:07.886Z,11.00
2017-09-04T02:26:36.981Z,9.90
2017-09-04T02:29:06.587Z,11.13
2017-09-04T02:31:35.275Z,11.00
2017-09-04T02:34:04.168Z,11.43
2017-09-04T02:36:33.060Z,12.30
2017-09-04T02:39:02.153Z,12.17
2017-09-04T02:41:31.760Z,12.57
2017-09-04T02:44:00.554Z,12.13
2017-09-04T02:46:29.445Z,12.37
2017-09-04T02:48:58.448Z,12.73
2017-09-04T02:51:27.372Z,12.93
2017-09-04T02:53:56.320Z,12.90
2017-09-04T02:56:25.212Z,14.10
2017-09-04T02:58:54.130Z,14.00
2017-09-04T03:01:24.017Z,13.30
2017-09-04T03:03:52.913Z,12.10
2017-09-04T03:06:21.960Z,13.63
2017-09-04T03:08:50.898Z,13.57
2017-09-04T03:11:20.220Z,12.80
2017-09-04T03:13:49.374Z,12.90
2017-09-04T03:16:18.187Z,14.20
2017-09-04T03:18:47.492Z,14.20
2017-09-04T03:21:16.484Z,13.67
2017-09-04T03:23:45.366Z,13.80
2017-09-04T03:26:14.462Z,13.60
2017-09-04T03:28:43.368Z,12.70
2017-09-04T04:53:11.286Z,12.60
2017-09-04T04:55:40.176Z,12.43
2017-09-04T04:58:09.021Z,13.17
2017-09-04T05:00:37.957Z,10.97
2017-09-04T05:03:07.667Z,12.27
2017-09-04T05:05:37.336Z,12.23
2017-09-04T05:08:06.355Z,13.60
2017-09-04T05:10:36.303Z,14.57
2017-09-04T05:13:06.207Z,18.00
2017-09-04T05:15:35.088Z,13.27
2017-09-04T05:18:03.984Z,12.93
2017-09-04T05:20:32.869Z,14.37
2017-09-04T05:23:01.665Z,12.63
2017-09-04T05:25:30.453Z,12.70
2017-09-04T05:27:59.341Z,12.83
2017-09-04T05:30:28.383Z,13.83
2017-09-04T05:32:57.442Z,11.57
2017-09-04T05:35:26.463Z,12.20
2017-09-04T05:37:55.833Z,11.60
2017-09-04T05:40:25.750Z,10.70
2017-09-04T05:42:55.821Z,10.97
2017-09-04T05:45:25.209Z,12.40
2017-09-04T05:47:54.257Z,12.50
2017-09-04T05:50:24.466Z,12.50
2017-09-04T05:52:53.471Z,10.97
2017-09-04T05:55:22.504Z,14.13
2017-09-04T05:57:51.767Z,54.73
2017-09-04T06:00:20.548Z,12.73
2017-09-04T06:02:49.780Z,10.63
2017-09-04T06:05:19.058Z,12.47
2017-09-04T06:07:48.192Z,10.70
2017-09-04T06:10:16.941Z,10.30
2017-09-04T06:12:45.834Z,9.80
2017-09-04T06:15:17.177Z,10.40
2017-09-04T06:17:46.378Z,11.10
2017-09-04T06:20:15.371Z,13.63
2017-09-04T06:22:44.488Z,12.60
2017-09-04T06:25:13.666Z,14.00
2017-09-04T06:27:42.760Z,13.97
2017-09-04T06:30:11.855Z,12.77
2017-09-04T06:32:40.954Z,12.33
2017-09-04T06:35:10.790Z,13.20
2017-09-04T06:37:39.762Z,12.37
2017-09-04T06:40:09.468Z,12.87
2017-09-04T06:42:38.359Z,11.80
2017-09-04T06:45:07.307Z,12.10
2017-09-04T06:47:36.356Z,11.83
2017-09-04T06:50:05.542Z,12.80
2017-09-04T06:52:34.437Z,13.40
2017-09-04T06:55:03.547Z,12.50
2017-09-04T06:57:33.405Z,11.90
2017-09-04T07:00:02.645Z,11.60
2017-09-04T07:02:31.748Z,15.13
2017-09-04T07:05:00.860Z,11.90
2017-09-04T07:07:30.145Z,15.93
2017-09-04T07:09:59.439Z,13.20
2017-09-04T07:12:28.342Z,11.10
2017-09-04T07:14:57.121Z,11.23
2017-09-04T07:17:26.140Z,19.00
2017-09-04T07:19:54.903Z,10.80
2017-09-04T07:22:23.794Z,9.33
2017-09-04T07:24:53.957Z,20.10
2017-09-04T07:27:22.814Z,12.43
2017-09-04T07:29:51.652Z,9.20
2017-09-04T07:32:20.593Z,9.27
2017-09-04T07:34:49.677Z,7.57
2017-09-04T07:37:18.703Z,7.40
2017-09-04T07:39:48.933Z,7.87
2017-09-04T07:42:17.783Z,8.70
2017-09-04T07:44:47.387Z,8.80
2017-09-04T07:47:16.580Z,7.60
2017-09-04T07:49:45.393Z,6.80
2017-09-04T07:52:14.273Z,9.13
2017-09-04T07:54:44.293Z,7.70
2017-09-04T07:57:13.645Z,10.10
2017-09-04T07:59:42.588Z,7.83
2017-09-04T08:02:11.472Z,7.00
2017-09-04T08:04:40.410Z,7.13
2017-09-04T08:07:10.473Z,7.33
2017-09-04T08:09:39.880Z,7.47
2017-09-04T08:12:08.913Z,6.00
2017-09-04T08:14:38.287Z,5.97
2017-09-04T08:17:07.195Z,6.60
2017-09-04T08:19:36.903Z,6.50
2017-09-04T08:22:06.348Z,4.53
2017-09-04T08:24:36.240Z,6.00
2017-09-04T08:27:05.346Z,5.57
2017-09-04T08:29:34.471Z,7.17
2017-09-04T08:32:03.616Z,6.77
2017-09-04T08:34:33.874Z,7.27
2017-09-04T08:37:03.506Z,6.60
2017-09-04T08:39:32.660Z,7.00
2017-09-04T08:42:01.887Z,8.10
2017-09-04T08:44:31.510Z,8.23
2017-09-04T08:47:01.816Z,8.03
2017-09-04T08:49:30.950Z,10.03
2017-09-04T08:52:00.475Z,8.70
2017-09-04T08:54:29.553Z,9.93
2017-09-04T08:56:58.995Z,9.33
2017-09-04T08:59:27.958Z,9.50
2017-09-04T09:01:57.675Z,8.63
2017-09-04T09:04:27.587Z,10.90
2017-09-04T09:06:57.493Z,8.10
2017-09-04T09:09:26.295Z,9.60
2017-09-04T09:11:55.400Z,9.67
2017-09-04T09:14:24.984Z,8.13
2017-09-04T09:16:55.058Z,8.67
2017-09-04T09:19:24.361Z,8.30
2017-09-04T09:21:53.710Z,8.00
2017-09-04T09:24:22.808Z,8.90
2017-09-04T09:26:52.318Z,7.73
2017-09-04T09:29:22.116Z,8.00
2017-09-04T09:31:51.728Z,6.40
2017-09-04T09:34:20.778Z,5.73
2017-09-04T09:36:49.862Z,5.20
2017-09-04T09:39:18.792Z,4.80
2017-09-04T09:41:47.722Z,5.47
2017-09-04T09:44:17.058Z,4.80
2017-09-04T09:46:46.018Z,5.13
2017-09-04T09:49:15.129Z,4.93
2017-09-04T09:51:45.217Z,4.60
2017-09-04T09:54:14.726Z,3.63
2017-09-04T09:56:44.014Z,4.70
2017-09-04T09:59:13.149Z,5.30
2017-09-04T10:01:42.512Z,5.03
2017-09-04T10:04:12.263Z,4.73
2017-09-04T10:06:41.383Z,4.70
2017-09-04T10:09:10.677Z,5.90
2017-09-04T10:11:40.286Z,5.37
2017-09-04T10:14:09.637Z,4.93
2017-09-04T10:16:39.248Z,4.90
2017-09-04T10:19:08.601Z,5.40
2017-09-04T10:21:38.157Z,5.33
2017-09-04T10:24:07.450Z,5.27
2017-09-04T10:26:36.484Z,5.27
2017-09-04T10:29:05.596Z,5.40
2017-09-04T10:31:34.738Z,5.00
2017-09-04T10:34:03.722Z,5.80
2017-09-04T10:36:33.853Z,5.13
2017-09-04T10:39:03.341Z,5.40
2017-09-04T10:41:33.389Z,5.53
2017-09-04T10:44:03.093Z,6.43
2017-09-04T10:46:32.183Z,5.87
2017-09-04T10:49:01.705Z,5.00
2017-09-04T10:51:31.391Z,4.97
2017-09-04T10:54:00.868Z,4.73
2017-09-04T10:56:30.017Z,4.90
2017-09-04T10:58:59.283Z,5.20
2017-09-04T11:01:28.505Z,5.00
2017-09-04T11:03:57.554Z,4.57
2017-09-04T11:06:26.695Z,5.40
2017-09-04T11:08:55.972Z,4.60
2017-09-04T11:11:24.881Z,4.50
2017-09-04T11:13:54.190Z,4.50
2017-09-04T11:16:23.444Z,5.53
2017-09-04T11:18:53.833Z,4.90
2017-09-04T11:21:23.193Z,5.13
2017-09-04T11:23:52.098Z,5.57
2017-09-04T11:26:21.199Z,5.07
2017-09-04T11:28:50.418Z,5.07
2017-09-04T11:31:20.048Z,4.90
2017-09-04T11:33:50.080Z,5.13
2017-09-04T11:36:19.217Z,4.70
2017-09-04T11:38:48.613Z,4.60
2017-09-04T11:41:17.729Z,5.73
2017-09-04T11:43:47.055Z,5.27
2017-09-04T11:46:16.020Z,6.30
2017-09-04T11:48:45.143Z,4.47
2017-09-04T11:51:14.330Z,4.20
2017-09-04T11:53:43.397Z,4.13
2017-09-04T11:56:12.596Z,5.10
2017-09-04T11:58:41.711Z,4.40
2017-09-04T12:01:10.684Z,5.00
2017-09-04T12:03:40.036Z,3.50
2017-09-04T12:06:09.202Z,3.03
2017-09-04T12:08:38.059Z,3.50
2017-09-04T12:11:06.934Z,3.73
2017-09-04T12:13:35.960Z,7.23
2017-09-04T12:16:05.228Z,3.30
2017-09-04T12:18:34.312Z,3.70
2017-09-04T12:21:03.451Z,4.70
2017-09-04T12:23:33.366Z,3.53
2017-09-04T12:26:03.158Z,3.97
2017-09-04T12:28:33.302Z,4.03
2017-09-04T12:31:02.189Z,4.40
2017-09-04T12:33:31.335Z,5.80
2017-09-04T12:36:00.284Z,3.93
2017-09-04T12:38:29.477Z,6.13
2017-09-04T12:40:58.815Z,3.90
2017-09-04T12:43:28.103Z,6.40
2017-09-04T12:45:58.600Z,3.87
2017-09-04T12:48:27.768Z,3.77
2017-09-04T12:50:56.492Z,4.07
2017-09-04T12:53:26.281Z,3.73
2017-09-04T12:55:56.512Z,4.10
2017-09-04T12:58:26.473Z,4.03
2017-09-04T13:00:55.746Z,4.40
2017-09-04T13:03:24.546Z,4.03
2017-09-04T13:05:53.453Z,4.00
2017-09-04T13:08:22.838Z,3.70
2017-09-04T13:14:01.371Z,3.97
2017-09-04T13:16:35.882Z,3.80
2017-09-04T13:19:11.436Z,3.20
2017-09-04T13:24:47.822Z,5.03
2017-09-04T13:27:22.478Z,4.30
2017-09-04T13:29:56.774Z,3.90
2017-09-04T13:35:32.856Z,4.53
2017-09-04T13:38:08.499Z,3.87
2017-09-04T13:40:42.714Z,4.20
2017-09-04T13:46:23.604Z,3.90
2017-09-04T13:48:58.228Z,4.47
2017-09-04T13:51:37.973Z,5.00
2017-09-04T13:54:12.415Z,3.90
2017-09-04T13:56:47.467Z,3.90
2017-09-04T13:59:22.409Z,8.10
2017-09-04T14:01:57.009Z,4.53
2017-09-04T14:04:46.565Z,4.63
2017-09-04T14:10:34.535Z,4.30
2017-09-04T14:13:09.966Z,3.92
2017-09-04T14:15:44.597Z,4.10
2017-09-04T14:18:13.674Z,3.80
2017-09-04T14:20:42.888Z,4.10
2017-09-04T14:23:12.060Z,3.83
2017-09-04T14:25:40.950Z,4.40
2017-09-04T14:28:10.242Z,3.93
2017-09-04T14:30:39.338Z,3.30
2017-09-04T14:33:08.687Z,4.17
2017-09-04T14:35:39.817Z,3.90
2017-09-04T14:38:09.121Z,4.37
2017-09-04T14:40:41.899Z,4.70
2017-09-04T14:43:15.722Z,3.70
2017-09-04T14:48:45.642Z,5.10
2017-09-04T14:51:14.944Z,3.70
2017-09-04T14:53:43.835Z,4.30
2017-09-04T14:56:12.888Z,4.00
2017-09-04T14:58:42.445Z,4.33
2017-09-04T15:01:12.339Z,3.80
2017-09-04T15:03:41.606Z,4.10
2017-09-04T15:06:10.748Z,3.77
2017-09-04T15:08:40.151Z,3.80
2017-09-04T15:11:09.661Z,3.60
2017-09-04T15:13:38.792Z,3.57
2017-09-04T15:16:08.172Z,3.90
2017-09-04T15:18:38.967Z,3.93
2017-09-04T15:21:07.986Z,4.30
2017-09-04T15:23:37.170Z,4.27
2017-09-04T15:26:08.477Z,3.57
2017-09-04T15:28:37.897Z,4.13
2017-09-04T15:31:06.838Z,3.63
2017-09-04T15:33:35.962Z,3.77
2017-09-04T15:36:05.236Z,3.37
2017-09-04T15:38:35.154Z,4.43
2017-09-04T15:41:04.235Z,3.70
2017-09-04T15:43:33.073Z,3.83
2017-09-04T15:46:02.734Z,4.17
2017-09-04T15:48:32.201Z,4.77
2017-09-04T15:51:01.344Z,3.80
2017-09-04T15:53:30.457Z,3.97
2017-09-04T15:55:59.853Z,3.90
2017-09-04T15:58:28.979Z,4.20
2017-09-04T16:00:58.547Z,4.07
2017-09-04T16:03:27.633Z,3.87
2017-09-04T16:05:58.547Z,4.13
2017-09-04T16:08:28.695Z,4.00
2017-09-04T16:10:57.584Z,3.43
2017-09-04T16:13:26.886Z,4.03
2017-09-04T16:16:13.181Z,3.80
2017-09-04T16:18:42.501Z,4.03
2017-09-04T16:21:22.232Z,3.93
2017-09-04T16:23:52.180Z,3.53
2017-09-04T16:26:33.735Z,3.80
2017-09-04T16:32:18.824Z,3.40
2017-09-04T16:34:54.434Z,4.33
2017-09-04T16:37:25.629Z,3.50
2017-09-04T16:39:55.937Z,3.83
2017-09-04T16:42:40.472Z,4.73
2017-09-04T16:48:14.071Z,3.27
2017-09-04T16:50:45.099Z,3.13
2017-09-04T16:53:29.214Z,4.30
2017-09-04T16:56:10.026Z,3.60
2017-09-04T16:58:39.279Z,3.40
2017-09-04T17:01:08.542Z,4.40
2017-09-04T17:03:37.813Z,3.83
2017-09-04T17:06:06.995Z,3.70
2017-09-04T17:08:39.990Z,4.10
2017-09-04T17:11:14.216Z,3.70
2017-09-04T17:13:45.751Z,3.53
2017-09-04T17:16:16.707Z,3.63
2017-09-04T17:18:50.584Z,4.90
2017-09-04T17:21:20.377Z,4.00
2017-09-04T17:23:50.858Z,4.20
2017-09-04T17:26:20.190Z,4.20
2017-09-04T17:28:49.977Z,4.10
2017-09-04T17:31:19.448Z,3.73
2017-09-04T17:33:48.922Z,3.77
2017-09-04T17:36:19.122Z,4.00
2017-09-04T17:38:48.668Z,4.33
2017-09-04T17:41:17.904Z,3.60
2017-09-04T17:43:47.527Z,4.30
2017-09-04T17:46:17.089Z,6.80
2017-09-04T17:48:46.488Z,4.97
2017-09-04T17:51:16.000Z,4.10
2017-09-04T17:53:45.385Z,4.97
2017-09-04T17:56:14.906Z,5.07
2017-09-04T17:58:44.006Z,4.30
2017-09-04T18:01:13.518Z,8.37
2017-09-04T18:03:43.155Z,4.40
2017-09-04T18:06:12.424Z,7.00
2017-09-04T18:08:42.369Z,4.90
2017-09-04T18:11:11.608Z,8.13
2017-09-04T18:13:40.483Z,4.30
2017-09-04T18:16:09.815Z,4.97
2017-09-04T18:18:39.562Z,5.60
2017-09-04T18:21:09.037Z,5.30
2017-09-04T18:23:38.222Z,4.20
2017-09-04T18:26:08.255Z,4.93
2017-09-04T18:28:38.280Z,4.27
2017-09-04T18:31:07.374Z,4.77
2017-09-04T18:33:36.257Z,6.23
2017-09-04T18:36:05.256Z,4.57
2017-09-04T18:38:34.420Z,4.80
2017-09-04T18:41:03.516Z,5.17
2017-09-04T18:43:32.592Z,5.20
2017-09-04T18:46:02.868Z,6.70
2017-09-04T18:48:31.869Z,4.60
2017-09-04T18:51:01.129Z,5.03
2017-09-04T18:53:30.139Z,5.10
2017-09-04T18:55:59.355Z,4.70
2017-09-04T18:58:28.216Z,4.20
2017-09-04T19:00:57.518Z,5.73
2017-09-04T19:03:26.671Z,5.53
2017-09-04T19:05:55.972Z,5.07
2017-09-04T19:08:25.242Z,4.73
2017-09-04T19:10:54.135Z,4.70
2017-09-04T19:13:23.227Z,4.40
2017-09-04T19:15:52.324Z,6.07
2017-09-04T19:18:21.227Z,6.57
2017-09-04T19:20:51.133Z,5.63
2017-09-04T19:23:20.017Z,5.20
2017-09-04T19:25:49.112Z,5.20
2017-09-04T19:28:18.499Z,4.70
2017-09-04T19:30:47.786Z,5.80
2017-09-04T19:33:16.707Z,6.40
2017-09-04T19:35:45.801Z,4.87
2017-09-04T19:38:14.699Z,4.30
2017-09-04T19:40:43.745Z,4.80
2017-09-04T19:43:13.452Z,5.00
2017-09-04T19:45:43.004Z,4.80
2017-09-04T19:48:12.102Z,5.00
2017-09-04T19:50:40.993Z,4.77
2017-09-04T19:53:10.302Z,5.30
2017-09-04T19:55:39.291Z,5.20
2017-09-04T19:58:08.591Z,5.13
2017-09-04T20:00:38.373Z,5.60
2017-09-04T20:03:07.497Z,5.80
2017-09-04T20:05:36.387Z,5.50
2017-09-04T20:08:05.561Z,5.30
2017-09-04T20:10:34.580Z,4.80
2017-09-04T20:13:03.964Z,4.83
2017-09-04T20:15:32.774Z,4.90
2017-09-04T20:18:01.655Z,5.30
2017-09-04T20:20:31.577Z,6.27
2017-09-04T20:23:00.671Z,5.10
2017-09-04T20:25:29.601Z,4.90
2017-09-04T20:27:59.071Z,5.37
2017-09-04T20:30:28.151Z,5.50
2017-09-04T20:32:57.059Z,4.83
2017-09-04T20:35:25.944Z,4.90
2017-09-04T20:37:55.158Z,4.90
2017-09-04T20:40:24.546Z,5.10
2017-09-04T20:42:53.690Z,4.50
2017-09-04T20:45:23.407Z,6.43
2017-09-04T20:47:53.255Z,7.20
2017-09-04T20:50:22.363Z,6.10
2017-09-04T20:52:51.699Z,6.27
2017-09-04T20:55:21.784Z,6.03
2017-09-04T20:57:50.688Z,5.50
2017-09-04T21:00:20.211Z,6.83
2017-09-04T21:02:49.280Z,7.10
2017-09-04T21:05:18.190Z,6.27
2017-09-04T21:07:47.882Z,6.77
2017-09-04T21:10:17.185Z,4.93
2017-09-04T21:12:46.486Z,5.90
2017-09-04T21:15:15.577Z,6.37
2017-09-04T21:17:44.674Z,4.83
2017-09-04T21:20:13.806Z,6.00
2017-09-04T21:22:43.791Z,6.37
2017-09-04T21:25:12.855Z,6.83
2017-09-04T21:27:41.878Z,6.73
2017-09-04T21:30:11.720Z,6.50
2017-09-04T21:32:41.200Z,54.77
2017-09-04T21:35:10.743Z,6.10
2017-09-04T21:37:39.984Z,5.20
2017-09-04T21:40:09.296Z,5.33
2017-09-04T21:42:38.490Z,5.03
2017-09-04T21:45:07.708Z,5.30
2017-09-04T21:47:36.993Z,5.53
2017-09-04T21:50:06.762Z,6.77
2017-09-04T21:52:36.762Z,6.27
2017-09-04T21:55:06.122Z,7.30
2017-09-04T21:57:35.155Z,5.90
2017-09-04T22:00:04.367Z,6.87
2017-09-04T22:02:34.272Z,6.20
2017-09-04T22:05:03.431Z,7.10
2017-09-04T22:07:33.144Z,7.03
2017-09-04T22:10:02.246Z,6.23
2017-09-04T22:12:31.390Z,6.83
2017-09-04T22:15:00.577Z,7.17
2017-09-04T22:17:29.974Z,7.53
2017-09-04T22:19:59.076Z,7.23
2017-09-04T22:22:28.595Z,6.03
2017-09-04T22:24:57.612Z,6.30
2017-09-04T22:27:26.739Z,4.60
2017-09-04T22:29:56.047Z,4.93
2017-09-04T22:32:25.504Z,5.27
2017-09-04T22:34:54.441Z,6.33
2017-09-04T22:37:24.417Z,6.20
2017-09-04T22:39:53.436Z,6.17
2017-09-04T22:42:22.853Z,6.50
2017-09-04T22:44:51.832Z,8.87
2017-09-04T22:47:21.195Z,7.17
2017-09-04T22:49:50.255Z,7.00
2017-09-04T22:52:20.239Z,6.67
2017-09-04T22:54:50.671Z,7.30
2017-09-04T22:57:19.768Z,6.40
2017-09-04T22:59:49.180Z,6.57
2017-09-04T23:02:18.344Z,8.73
2017-09-04T23:04:47.262Z,7.57
2017-09-04T23:07:16.392Z,6.70
2017-09-04T23:09:45.461Z,7.20
2017-09-04T23:12:14.566Z,14.10
2017-09-04T23:14:43.604Z,16.73
2017-09-04T23:17:12.534Z,21.53
2017-09-04T23:19:41.837Z,23.27
2017-09-04T23:22:10.733Z,21.93
2017-09-04T23:24:39.583Z,16.90
2017-09-04T23:27:08.512Z,14.90
2017-09-04T23:29:37.445Z,13.60
2017-09-04T23:32:06.392Z,12.40
2017-09-04T23:34:35.286Z,10.47
2017-09-04T23:37:04.383Z,7.23
2017-09-04T23:39:33.277Z,9.10
2017-09-04T23:42:02.781Z,9.70
2017-09-04T23:44:31.670Z,7.93
2017-09-04T23:47:00.501Z,7.47
2017-09-04T23:49:29.453Z,7.80
2017-09-04T23:51:58.340Z,6.57
2017-09-04T23:54:28.324Z,8.13
2017-09-04T23:56:57.455Z,7.23
2017-09-04T23:59:26.351Z,8.60
